sensor_id;sensor_type;location;lat;lon;timestamp;temperature;humidity
54576;DHT22;40472;53.486;14.542;2023-03-11T00:02:11;0.00;99.90
54576;DHT22;40472;53.486;14.542;2023-03-11T00:04:36;0.00;99.90
54576;DHT22;40472;53.486;14.542;2023-03-11T00:07:05;0.00;99.90
54576;DHT22;40472;53.486;14.542;2023-03-11T00:09:31;0.00;99.90
54576;DHT22;40472;53.486;14.542;2023-03-11T00:11:57;0.00;99.90
54576;DHT22;40472;53.486;14.542;2023-03-11T00:14:23;0.00;99.90
54576;DHT22;40472;53.486;14.542;2023-03-11T00:16:49;0.00;99.90
54576;DHT22;40472;53.486;14.542;2023-03-11T00:19:14;0.00;99.90
54576;DHT22;40472;53.486;14.542;2023-03-11T00:21:40;0.00;99.90
54576;DHT22;40472;53.486;14.542;2023-03-11T00:24:06;0.00;99.90
54576;DHT22;40472;53.486;14.542;2023-03-11T00:26:32;-0.10;99.90
54576;DHT22;40472;53.486;14.542;2023-03-11T00:29:00;-0.10;99.90
54576;DHT22;40472;53.486;14.542;2023-03-11T00:31:26;-0.10;99.90
54576;DHT22;40472;53.486;14.542;2023-03-11T00:33:53;-0.10;99.90
54576;DHT22;40472;53.486;14.542;2023-03-11T00:36:30;-0.10;99.90
54576;DHT22;40472;53.486;14.542;2023-03-11T00:38:57;-0.10;99.90
54576;DHT22;40472;53.486;14.542;2023-03-11T00:41:23;-0.10;99.90
54576;DHT22;40472;53.486;14.542;2023-03-11T00:43:49;-0.10;99.90
54576;DHT22;40472;53.486;14.542;2023-03-11T00:46:18;-0.10;99.90
54576;DHT22;40472;53.486;14.542;2023-03-11T00:48:44;-0.10;99.90
54576;DHT22;40472;53.486;14.542;2023-03-11T00:51:14;-0.10;99.90
54576;DHT22;40472;53.486;14.542;2023-03-11T00:53:41;-0.10;99.90
54576;DHT22;40472;53.486;14.542;2023-03-11T00:56:11;-0.10;99.90
54576;DHT22;40472;53.486;14.542;2023-03-11T00:58:38;0.00;99.90
54576;DHT22;40472;53.486;14.542;2023-03-11T01:03:34;0.00;99.90
54576;DHT22;40472;53.486;14.542;2023-03-11T01:06:00;0.00;99.90
54576;DHT22;40472;53.486;14.542;2023-03-11T01:08:26;0.00;99.90
54576;DHT22;40472;53.486;14.542;2023-03-11T01:10:54;0.00;99.90
54576;DHT22;40472;53.486;14.542;2023-03-11T01:13:22;0.00;99.90
54576;DHT22;40472;53.486;14.542;2023-03-11T01:15:48;0.00;99.90
54576;DHT22;40472;53.486;14.542;2023-03-11T01:18:14;0.00;99.90
54576;DHT22;40472;53.486;14.542;2023-03-11T01:20:41;0.00;99.90
54576;DHT22;40472;53.486;14.542;2023-03-11T01:23:08;0.00;99.90
54576;DHT22;40472;53.486;14.542;2023-03-11T01:25:34;0.00;99.90
54576;DHT22;40472;53.486;14.542;2023-03-11T01:28:00;0.00;99.90
54576;DHT22;40472;53.486;14.542;2023-03-11T01:30:27;0.10;99.90
54576;DHT22;40472;53.486;14.542;2023-03-11T01:32:53;0.10;99.90
54576;DHT22;40472;53.486;14.542;2023-03-11T01:35:22;0.10;99.90
54576;DHT22;40472;53.486;14.542;2023-03-11T01:37:48;0.10;99.90
54576;DHT22;40472;53.486;14.542;2023-03-11T01:40:19;0.10;99.90
54576;DHT22;40472;53.486;14.542;2023-03-11T01:42:45;0.10;99.90
54576;DHT22;40472;53.486;14.542;2023-03-11T01:48:03;0.10;99.90
54576;DHT22;40472;53.486;14.542;2023-03-11T01:50:33;0.10;99.90
54576;DHT22;40472;53.486;14.542;2023-03-11T01:53:02;0.10;99.90
54576;DHT22;40472;53.486;14.542;2023-03-11T01:55:30;0.20;99.90
54576;DHT22;40472;53.486;14.542;2023-03-11T01:57:57;0.20;99.90
54576;DHT22;40472;53.486;14.542;2023-03-11T02:00:24;0.20;99.90
54576;DHT22;40472;53.486;14.542;2023-03-11T02:02:56;0.20;99.90
54576;DHT22;40472;53.486;14.542;2023-03-11T02:05:23;0.20;99.90
54576;DHT22;40472;53.486;14.542;2023-03-11T02:07:50;0.30;99.90
54576;DHT22;40472;53.486;14.542;2023-03-11T02:10:17;0.20;99.90
54576;DHT22;40472;53.486;14.542;2023-03-11T02:12:44;0.20;99.90
54576;DHT22;40472;53.486;14.542;2023-03-11T02:15:11;0.30;99.90
54576;DHT22;40472;53.486;14.542;2023-03-11T02:17:40;0.30;99.90
54576;DHT22;40472;53.486;14.542;2023-03-11T02:22:33;0.40;99.90
54576;DHT22;40472;53.486;14.542;2023-03-11T02:25:04;0.40;99.90
54576;DHT22;40472;53.486;14.542;2023-03-11T02:27:34;0.40;99.90
54576;DHT22;40472;53.486;14.542;2023-03-11T02:30:01;0.40;99.90
54576;DHT22;40472;53.486;14.542;2023-03-11T02:32:28;0.40;99.90
54576;DHT22;40472;53.486;14.542;2023-03-11T02:34:54;0.50;99.90
54576;DHT22;40472;53.486;14.542;2023-03-11T02:37:19;0.50;99.90
54576;DHT22;40472;53.486;14.542;2023-03-11T02:39:47;0.40;99.90
54576;DHT22;40472;53.486;14.542;2023-03-11T02:42:22;0.40;99.90
54576;DHT22;40472;53.486;14.542;2023-03-11T02:45:07;0.40;99.90
54576;DHT22;40472;53.486;14.542;2023-03-11T02:47:34;0.50;99.90
54576;DHT22;40472;53.486;14.542;2023-03-11T02:50:00;0.40;99.90
54576;DHT22;40472;53.486;14.542;2023-03-11T02:52:33;0.40;99.90
54576;DHT22;40472;53.486;14.542;2023-03-11T02:55:01;0.40;99.90
54576;DHT22;40472;53.486;14.542;2023-03-11T02:57:27;0.40;99.90
54576;DHT22;40472;53.486;14.542;2023-03-11T02:59:52;0.40;99.90
54576;DHT22;40472;53.486;14.542;2023-03-11T03:02:19;0.40;99.90
54576;DHT22;40472;53.486;14.542;2023-03-11T03:04:44;0.40;99.90
54576;DHT22;40472;53.486;14.542;2023-03-11T03:07:10;0.40;99.90
54576;DHT22;40472;53.486;14.542;2023-03-11T03:09:37;0.40;99.90
54576;DHT22;40472;53.486;14.542;2023-03-11T03:12:03;0.40;99.90
54576;DHT22;40472;53.486;14.542;2023-03-11T03:14:30;0.40;99.90
54576;DHT22;40472;53.486;14.542;2023-03-11T03:16:56;0.40;99.90
54576;DHT22;40472;53.486;14.542;2023-03-11T03:19:22;0.40;99.90
54576;DHT22;40472;53.486;14.542;2023-03-11T03:21:47;0.40;99.90
54576;DHT22;40472;53.486;14.542;2023-03-11T03:24:14;0.40;99.90
54576;DHT22;40472;53.486;14.542;2023-03-11T03:26:40;0.40;99.90
54576;DHT22;40472;53.486;14.542;2023-03-11T03:29:06;0.40;99.90
54576;DHT22;40472;53.486;14.542;2023-03-11T03:31:31;0.40;99.90
54576;DHT22;40472;53.486;14.542;2023-03-11T03:33:58;0.40;99.90
54576;DHT22;40472;53.486;14.542;2023-03-11T03:36:24;0.40;99.90
54576;DHT22;40472;53.486;14.542;2023-03-11T03:38:55;0.40;99.90
54576;DHT22;40472;53.486;14.542;2023-03-11T03:41:23;0.40;99.90
54576;DHT22;40472;53.486;14.542;2023-03-11T03:43:52;0.30;99.90
54576;DHT22;40472;53.486;14.542;2023-03-11T03:46:19;0.30;99.90
54576;DHT22;40472;53.486;14.542;2023-03-11T03:48:45;0.30;99.90
54576;DHT22;40472;53.486;14.542;2023-03-11T03:51:12;0.30;99.90
54576;DHT22;40472;53.486;14.542;2023-03-11T03:53:38;0.30;99.90
54576;DHT22;40472;53.486;14.542;2023-03-11T03:56:10;0.40;99.90
54576;DHT22;40472;53.486;14.542;2023-03-11T03:58:39;0.30;99.90
54576;DHT22;40472;53.486;14.542;2023-03-11T04:01:05;0.30;99.90
54576;DHT22;40472;53.486;14.542;2023-03-11T04:03:32;0.40;99.90
54576;DHT22;40472;53.486;14.542;2023-03-11T04:08:44;0.40;99.90
54576;DHT22;40472;53.486;14.542;2023-03-11T04:11:10;0.30;99.90
54576;DHT22;40472;53.486;14.542;2023-03-11T04:13:39;0.30;99.90
54576;DHT22;40472;53.486;14.542;2023-03-11T04:16:06;0.30;99.90
54576;DHT22;40472;53.486;14.542;2023-03-11T04:18:32;0.20;99.90
54576;DHT22;40472;53.486;14.542;2023-03-11T04:20:58;0.20;99.90
54576;DHT22;40472;53.486;14.542;2023-03-11T04:23:24;0.20;99.90
54576;DHT22;40472;53.486;14.542;2023-03-11T04:25:50;0.20;99.90
54576;DHT22;40472;53.486;14.542;2023-03-11T04:28:16;0.10;99.90
54576;DHT22;40472;53.486;14.542;2023-03-11T04:30:41;0.10;99.90
54576;DHT22;40472;53.486;14.542;2023-03-11T04:33:09;0.10;99.90
54576;DHT22;40472;53.486;14.542;2023-03-11T04:35:38;0.10;99.90
54576;DHT22;40472;53.486;14.542;2023-03-11T04:38:03;0.10;99.90
54576;DHT22;40472;53.486;14.542;2023-03-11T04:40:29;0.10;99.90
54576;DHT22;40472;53.486;14.542;2023-03-11T04:42:58;0.00;99.90
54576;DHT22;40472;53.486;14.542;2023-03-11T04:45:24;0.10;99.90
54576;DHT22;40472;53.486;14.542;2023-03-11T04:47:50;0.10;99.90
54576;DHT22;40472;53.486;14.542;2023-03-11T04:50:17;-0.10;99.90
54576;DHT22;40472;53.486;14.542;2023-03-11T04:52:43;-0.20;99.90
54576;DHT22;40472;53.486;14.542;2023-03-11T04:55:11;-0.20;99.90
54576;DHT22;40472;53.486;14.542;2023-03-11T04:57:39;-0.30;99.90
54576;DHT22;40472;53.486;14.542;2023-03-11T05:00:08;-0.30;99.90
54576;DHT22;40472;53.486;14.542;2023-03-11T05:02:36;-0.30;99.90
54576;DHT22;40472;53.486;14.542;2023-03-11T05:05:06;-0.30;99.90
54576;DHT22;40472;53.486;14.542;2023-03-11T05:07:31;-0.30;99.90
54576;DHT22;40472;53.486;14.542;2023-03-11T05:09:57;-0.30;99.90
54576;DHT22;40472;53.486;14.542;2023-03-11T05:12:23;-0.40;99.90
54576;DHT22;40472;53.486;14.542;2023-03-11T05:14:51;-0.30;99.90
54576;DHT22;40472;53.486;14.542;2023-03-11T05:17:16;-0.30;99.90
54576;DHT22;40472;53.486;14.542;2023-03-11T05:19:44;-0.40;99.90
54576;DHT22;40472;53.486;14.542;2023-03-11T05:22:09;-0.40;99.90
54576;DHT22;40472;53.486;14.542;2023-03-11T05:24:35;-0.40;99.90
54576;DHT22;40472;53.486;14.542;2023-03-11T05:27:02;-0.30;99.90
54576;DHT22;40472;53.486;14.542;2023-03-11T05:29:28;-0.30;99.90
54576;DHT22;40472;53.486;14.542;2023-03-11T05:31:53;-0.20;99.90
54576;DHT22;40472;53.486;14.542;2023-03-11T05:34:21;-0.20;99.90
54576;DHT22;40472;53.486;14.542;2023-03-11T05:36:47;-0.30;99.90
54576;DHT22;40472;53.486;14.542;2023-03-11T05:39:13;-0.30;99.90
54576;DHT22;40472;53.486;14.542;2023-03-11T05:41:39;-0.30;99.90
54576;DHT22;40472;53.486;14.542;2023-03-11T05:44:05;-0.20;99.90
54576;DHT22;40472;53.486;14.542;2023-03-11T05:46:31;-0.20;99.90
54576;DHT22;40472;53.486;14.542;2023-03-11T05:49:00;-0.20;99.90
54576;DHT22;40472;53.486;14.542;2023-03-11T05:51:26;-0.20;99.90
54576;DHT22;40472;53.486;14.542;2023-03-11T05:53:52;-0.20;99.90
54576;DHT22;40472;53.486;14.542;2023-03-11T05:56:19;-0.20;99.90
54576;DHT22;40472;53.486;14.542;2023-03-11T05:58:46;-0.20;99.90
54576;DHT22;40472;53.486;14.542;2023-03-11T06:01:14;-0.10;99.90
54576;DHT22;40472;53.486;14.542;2023-03-11T06:03:41;-0.10;99.90
54576;DHT22;40472;53.486;14.542;2023-03-11T06:06:09;-0.20;99.90
54576;DHT22;40472;53.486;14.542;2023-03-11T06:08:35;-0.10;99.90
54576;DHT22;40472;53.486;14.542;2023-03-11T06:11:02;-0.20;99.90
54576;DHT22;40472;53.486;14.542;2023-03-11T06:13:28;-0.10;99.90
54576;DHT22;40472;53.486;14.542;2023-03-11T06:15:54;-0.10;99.90
54576;DHT22;40472;53.486;14.542;2023-03-11T06:18:20;0.00;99.90
54576;DHT22;40472;53.486;14.542;2023-03-11T06:20:49;-0.10;99.90
54576;DHT22;40472;53.486;14.542;2023-03-11T06:23:14;0.00;99.90
54576;DHT22;40472;53.486;14.542;2023-03-11T06:25:40;0.00;99.90
54576;DHT22;40472;53.486;14.542;2023-03-11T06:28:08;0.00;99.90
54576;DHT22;40472;53.486;14.542;2023-03-11T06:30:36;0.00;99.90
54576;DHT22;40472;53.486;14.542;2023-03-11T06:33:02;0.10;99.90
54576;DHT22;40472;53.486;14.542;2023-03-11T06:35:28;0.10;99.90
54576;DHT22;40472;53.486;14.542;2023-03-11T06:37:53;0.10;99.90
54576;DHT22;40472;53.486;14.542;2023-03-11T06:40:19;0.10;99.90
54576;DHT22;40472;53.486;14.542;2023-03-11T06:42:46;0.10;99.90
54576;DHT22;40472;53.486;14.542;2023-03-11T06:45:12;0.10;99.90
54576;DHT22;40472;53.486;14.542;2023-03-11T06:47:38;0.20;99.90
54576;DHT22;40472;53.486;14.542;2023-03-11T06:50:04;0.20;99.90
54576;DHT22;40472;53.486;14.542;2023-03-11T06:52:32;0.20;99.90
54576;DHT22;40472;53.486;14.542;2023-03-11T06:54:57;0.20;99.90
54576;DHT22;40472;53.486;14.542;2023-03-11T06:57:23;0.20;99.90
54576;DHT22;40472;53.486;14.542;2023-03-11T06:59:49;0.30;99.90
54576;DHT22;40472;53.486;14.542;2023-03-11T07:02:15;0.40;99.90
54576;DHT22;40472;53.486;14.542;2023-03-11T07:04:41;0.40;99.90
54576;DHT22;40472;53.486;14.542;2023-03-11T07:07:07;0.30;99.90
54576;DHT22;40472;53.486;14.542;2023-03-11T07:09:35;0.30;99.90
54576;DHT22;40472;53.486;14.542;2023-03-11T07:12:00;0.20;99.90
54576;DHT22;40472;53.486;14.542;2023-03-11T07:14:26;0.20;99.90
54576;DHT22;40472;53.486;14.542;2023-03-11T07:16:52;0.20;99.90
54576;DHT22;40472;53.486;14.542;2023-03-11T07:19:18;0.10;99.90
54576;DHT22;40472;53.486;14.542;2023-03-11T07:21:44;0.10;99.90
54576;DHT22;40472;53.486;14.542;2023-03-11T07:24:11;0.10;99.90
54576;DHT22;40472;53.486;14.542;2023-03-11T07:26:38;0.20;99.90
54576;DHT22;40472;53.486;14.542;2023-03-11T07:29:03;0.10;99.90
54576;DHT22;40472;53.486;14.542;2023-03-11T07:31:32;0.10;99.90
54576;DHT22;40472;53.486;14.542;2023-03-11T07:34:00;0.10;99.90
54576;DHT22;40472;53.486;14.542;2023-03-11T07:36:26;0.00;99.90
54576;DHT22;40472;53.486;14.542;2023-03-11T07:38:58;-0.10;99.90
54576;DHT22;40472;53.486;14.542;2023-03-11T07:41:25;-0.10;99.90
54576;DHT22;40472;53.486;14.542;2023-03-11T07:43:56;-0.10;99.90
54576;DHT22;40472;53.486;14.542;2023-03-11T07:46:23;-0.10;99.90
54576;DHT22;40472;53.486;14.542;2023-03-11T07:48:50;-0.10;99.90
54576;DHT22;40472;53.486;14.542;2023-03-11T07:51:19;0.00;99.90
54576;DHT22;40472;53.486;14.542;2023-03-11T07:53:45;0.00;99.90
54576;DHT22;40472;53.486;14.542;2023-03-11T07:56:14;0.10;99.90
54576;DHT22;40472;53.486;14.542;2023-03-11T07:58:40;0.10;99.90
54576;DHT22;40472;53.486;14.542;2023-03-11T08:01:09;0.20;99.90
54576;DHT22;40472;53.486;14.542;2023-03-11T08:03:35;0.30;99.90
54576;DHT22;40472;53.486;14.542;2023-03-11T08:06:01;0.20;99.90
54576;DHT22;40472;53.486;14.542;2023-03-11T08:08:27;0.20;99.90
54576;DHT22;40472;53.486;14.542;2023-03-11T08:10:53;0.40;99.90
54576;DHT22;40472;53.486;14.542;2023-03-11T08:13:19;0.40;99.90
54576;DHT22;40472;53.486;14.542;2023-03-11T08:15:45;0.40;99.90
54576;DHT22;40472;53.486;14.542;2023-03-11T08:18:11;0.60;99.90
54576;DHT22;40472;53.486;14.542;2023-03-11T08:20:39;0.50;99.90
54576;DHT22;40472;53.486;14.542;2023-03-11T08:23:06;0.40;99.90
54576;DHT22;40472;53.486;14.542;2023-03-11T08:25:32;0.40;99.90
54576;DHT22;40472;53.486;14.542;2023-03-11T08:27:59;0.40;99.90
54576;DHT22;40472;53.486;14.542;2023-03-11T08:30:25;0.30;99.90
54576;DHT22;40472;53.486;14.542;2023-03-11T08:32:51;0.20;99.90
54576;DHT22;40472;53.486;14.542;2023-03-11T08:35:19;0.10;99.90
54576;DHT22;40472;53.486;14.542;2023-03-11T08:37:46;0.10;99.90
54576;DHT22;40472;53.486;14.542;2023-03-11T08:40:12;0.10;99.90
54576;DHT22;40472;53.486;14.542;2023-03-11T08:42:39;0.10;99.90
54576;DHT22;40472;53.486;14.542;2023-03-11T08:45:05;0.30;99.90
54576;DHT22;40472;53.486;14.542;2023-03-11T08:47:36;0.30;99.90
54576;DHT22;40472;53.486;14.542;2023-03-11T08:50:07;0.20;99.90
54576;DHT22;40472;53.486;14.542;2023-03-11T08:52:34;0.40;99.90
54576;DHT22;40472;53.486;14.542;2023-03-11T08:55:00;0.20;99.90
54576;DHT22;40472;53.486;14.542;2023-03-11T08:57:25;0.20;99.90
54576;DHT22;40472;53.486;14.542;2023-03-11T08:59:51;0.20;99.90
54576;DHT22;40472;53.486;14.542;2023-03-11T09:02:18;0.20;99.90
54576;DHT22;40472;53.486;14.542;2023-03-11T09:04:44;0.30;99.90
54576;DHT22;40472;53.486;14.542;2023-03-11T09:07:16;0.40;99.90
54576;DHT22;40472;53.486;14.542;2023-03-11T09:09:42;0.50;99.90
54576;DHT22;40472;53.486;14.542;2023-03-11T09:12:09;0.70;99.90
54576;DHT22;40472;53.486;14.542;2023-03-11T09:14:40;0.50;99.90
54576;DHT22;40472;53.486;14.542;2023-03-11T09:17:07;0.70;99.90
54576;DHT22;40472;53.486;14.542;2023-03-11T09:19:40;0.70;99.90
54576;DHT22;40472;53.486;14.542;2023-03-11T09:22:07;0.80;99.90
54576;DHT22;40472;53.486;14.542;2023-03-11T09:24:36;0.80;99.90
54576;DHT22;40472;53.486;14.542;2023-03-11T09:27:02;0.90;99.90
54576;DHT22;40472;53.486;14.542;2023-03-11T09:29:29;1.00;99.90
54576;DHT22;40472;53.486;14.542;2023-03-11T09:31:57;1.30;99.90
54576;DHT22;40472;53.486;14.542;2023-03-11T09:34:24;1.30;99.90
54576;DHT22;40472;53.486;14.542;2023-03-11T09:36:49;1.30;99.90
54576;DHT22;40472;53.486;14.542;2023-03-11T09:39:15;1.30;99.90
54576;DHT22;40472;53.486;14.542;2023-03-11T09:41:53;1.30;99.90
54576;DHT22;40472;53.486;14.542;2023-03-11T09:44:31;1.60;99.90
54576;DHT22;40472;53.486;14.542;2023-03-11T09:50:08;1.70;99.90
54576;DHT22;40472;53.486;14.542;2023-03-11T09:57:50;1.60;99.90
54576;DHT22;40472;53.486;14.542;2023-03-11T10:00:20;1.60;99.90
54576;DHT22;40472;53.486;14.542;2023-03-11T10:02:48;1.50;99.90
54576;DHT22;40472;53.486;14.542;2023-03-11T10:05:21;1.50;99.90
54576;DHT22;40472;53.486;14.542;2023-03-11T10:08:02;1.50;99.90
54576;DHT22;40472;53.486;14.542;2023-03-11T10:10:32;1.60;99.90
54576;DHT22;40472;53.486;14.542;2023-03-11T10:13:12;1.60;99.90
54576;DHT22;40472;53.486;14.542;2023-03-11T10:24:12;2.10;99.90
54576;DHT22;40472;53.486;14.542;2023-03-11T10:27:08;2.20;99.90
54576;DHT22;40472;53.486;14.542;2023-03-11T10:29:51;2.20;99.90
54576;DHT22;40472;53.486;14.542;2023-03-11T10:34:51;2.20;99.90
54576;DHT22;40472;53.486;14.542;2023-03-11T10:37:34;2.10;99.90
54576;DHT22;40472;53.486;14.542;2023-03-11T10:40:28;2.00;99.90
54576;DHT22;40472;53.486;14.542;2023-03-11T10:42:57;2.10;99.90
54576;DHT22;40472;53.486;14.542;2023-03-11T10:45:24;1.90;99.90
54576;DHT22;40472;53.486;14.542;2023-03-11T10:47:51;1.60;99.90
54576;DHT22;40472;53.486;14.542;2023-03-11T10:50:18;1.60;99.90
54576;DHT22;40472;53.486;14.542;2023-03-11T10:53:11;1.70;99.90
54576;DHT22;40472;53.486;14.542;2023-03-11T10:55:50;2.00;99.90
54576;DHT22;40472;53.486;14.542;2023-03-11T10:58:20;2.20;99.90
54576;DHT22;40472;53.486;14.542;2023-03-11T11:01:16;1.70;99.90
54576;DHT22;40472;53.486;14.542;2023-03-11T11:03:47;1.70;99.90
54576;DHT22;40472;53.486;14.542;2023-03-11T11:06:34;1.70;99.90
54576;DHT22;40472;53.486;14.542;2023-03-11T11:09:20;1.70;99.90
54576;DHT22;40472;53.486;14.542;2023-03-11T11:14:47;1.40;99.90
54576;DHT22;40472;53.486;14.542;2023-03-11T11:17:22;1.60;99.90
54576;DHT22;40472;53.486;14.542;2023-03-11T11:19:50;1.60;99.90
54576;DHT22;40472;53.486;14.542;2023-03-11T11:22:20;1.70;99.90
54576;DHT22;40472;53.486;14.542;2023-03-11T11:24:48;1.60;99.90
54576;DHT22;40472;53.486;14.542;2023-03-11T11:29:47;1.30;99.90
54576;DHT22;40472;53.486;14.542;2023-03-11T11:32:26;1.20;99.90
54576;DHT22;40472;53.486;14.542;2023-03-11T11:34:59;1.30;99.90
54576;DHT22;40472;53.486;14.542;2023-03-11T11:37:29;1.50;99.90
54576;DHT22;40472;53.486;14.542;2023-03-11T11:40:06;1.70;99.90
54576;DHT22;40472;53.486;14.542;2023-03-11T11:45:37;1.90;99.90
54576;DHT22;40472;53.486;14.542;2023-03-11T11:48:25;2.00;99.90
54576;DHT22;40472;53.486;14.542;2023-03-11T11:50:58;2.10;99.90
54576;DHT22;40472;53.486;14.542;2023-03-11T11:53:33;2.10;99.90
54576;DHT22;40472;53.486;14.542;2023-03-11T11:56:01;2.30;99.90
54576;DHT22;40472;53.486;14.542;2023-03-11T11:58:29;2.10;99.90
54576;DHT22;40472;53.486;14.542;2023-03-11T12:01:15;2.10;99.90
54576;DHT22;40472;53.486;14.542;2023-03-11T12:03:53;1.90;99.90
54576;DHT22;40472;53.486;14.542;2023-03-11T12:06:28;1.80;99.90
54576;DHT22;40472;53.486;14.542;2023-03-11T12:12:19;1.40;99.90
54576;DHT22;40472;53.486;14.542;2023-03-11T12:15:07;1.50;99.90
54576;DHT22;40472;53.486;14.542;2023-03-11T12:17:38;2.10;99.90
54576;DHT22;40472;53.486;14.542;2023-03-11T12:30:44;2.10;99.90
54576;DHT22;40472;53.486;14.542;2023-03-11T12:33:32;1.90;99.90
54576;DHT22;40472;53.486;14.542;2023-03-11T12:35:59;1.90;99.90
54576;DHT22;40472;53.486;14.542;2023-03-11T12:38:32;2.10;99.90
54576;DHT22;40472;53.486;14.542;2023-03-11T12:46:09;2.00;99.90
54576;DHT22;40472;53.486;14.542;2023-03-11T12:48:41;1.90;99.90
54576;DHT22;40472;53.486;14.542;2023-03-11T12:56:49;2.00;99.90
54576;DHT22;40472;53.486;14.542;2023-03-11T13:04:56;2.00;99.90
54576;DHT22;40472;53.486;14.542;2023-03-11T13:07:59;2.10;99.90
54576;DHT22;40472;53.486;14.542;2023-03-11T13:10:45;2.00;99.90
54576;DHT22;40472;53.486;14.542;2023-03-11T13:13:40;1.60;99.90
54576;DHT22;40472;53.486;14.542;2023-03-11T13:18:42;1.60;99.90
54576;DHT22;40472;53.486;14.542;2023-03-11T13:34:49;2.00;99.90
54576;DHT22;40472;53.486;14.542;2023-03-11T13:42:51;2.50;99.90
54576;DHT22;40472;53.486;14.542;2023-03-11T13:45:30;2.30;99.90
54576;DHT22;40472;53.486;14.542;2023-03-11T13:48:03;2.30;99.90
54576;DHT22;40472;53.486;14.542;2023-03-11T13:50:52;2.40;99.90
54576;DHT22;40472;53.486;14.542;2023-03-11T13:53:28;2.10;99.90
54576;DHT22;40472;53.486;14.542;2023-03-11T13:55:57;2.20;99.90
54576;DHT22;40472;53.486;14.542;2023-03-11T13:58:31;2.20;99.90
54576;DHT22;40472;53.486;14.542;2023-03-11T14:01:00;2.30;99.90
54576;DHT22;40472;53.486;14.542;2023-03-11T14:03:29;2.50;99.90
54576;DHT22;40472;53.486;14.542;2023-03-11T14:06:02;2.50;99.90
54576;DHT22;40472;53.486;14.542;2023-03-11T14:08:29;2.60;99.90
54576;DHT22;40472;53.486;14.542;2023-03-11T14:11:01;2.60;99.90
54576;DHT22;40472;53.486;14.542;2023-03-11T14:13:38;2.80;99.90
54576;DHT22;40472;53.486;14.542;2023-03-11T14:19:15;2.70;99.90
54576;DHT22;40472;53.486;14.542;2023-03-11T14:21:48;2.60;99.90
54576;DHT22;40472;53.486;14.542;2023-03-11T14:24:21;2.60;99.90
54576;DHT22;40472;53.486;14.542;2023-03-11T14:26:50;2.30;99.90
54576;DHT22;40472;53.486;14.542;2023-03-11T14:29:30;2.20;99.90
54576;DHT22;40472;53.486;14.542;2023-03-11T14:31:57;2.40;99.90
54576;DHT22;40472;53.486;14.542;2023-03-11T14:34:25;2.50;99.90
54576;DHT22;40472;53.486;14.542;2023-03-11T14:36:57;2.50;99.90
54576;DHT22;40472;53.486;14.542;2023-03-11T14:39:36;2.50;99.90
54576;DHT22;40472;53.486;14.542;2023-03-11T14:42:27;2.50;99.90
54576;DHT22;40472;53.486;14.542;2023-03-11T14:45:02;2.50;99.90
54576;DHT22;40472;53.486;14.542;2023-03-11T14:47:45;2.50;99.90
54576;DHT22;40472;53.486;14.542;2023-03-11T14:50:23;2.40;99.90
54576;DHT22;40472;53.486;14.542;2023-03-11T15:00:39;2.50;99.90
54576;DHT22;40472;53.486;14.542;2023-03-11T15:03:26;2.30;99.90
54576;DHT22;40472;53.486;14.542;2023-03-11T15:08:33;2.10;99.90
54576;DHT22;40472;53.486;14.542;2023-03-11T15:13:36;2.30;99.90
54576;DHT22;40472;53.486;14.542;2023-03-11T15:16:05;2.60;99.90
54576;DHT22;40472;53.486;14.542;2023-03-11T15:18:36;2.50;99.90
54576;DHT22;40472;53.486;14.542;2023-03-11T15:21:17;2.60;99.90
54576;DHT22;40472;53.486;14.542;2023-03-11T15:23:52;2.80;99.90
54576;DHT22;40472;53.486;14.542;2023-03-11T15:26:25;2.70;99.90
54576;DHT22;40472;53.486;14.542;2023-03-11T15:29:09;2.60;99.90
54576;DHT22;40472;53.486;14.542;2023-03-11T15:31:40;2.50;99.90
54576;DHT22;40472;53.486;14.542;2023-03-11T15:36:44;2.50;99.90
54576;DHT22;40472;53.486;14.542;2023-03-11T15:44:38;2.20;99.90
54576;DHT22;40472;53.486;14.542;2023-03-11T15:47:12;2.20;99.90
54576;DHT22;40472;53.486;14.542;2023-03-11T15:49:38;2.10;99.90
54576;DHT22;40472;53.486;14.542;2023-03-11T15:52:04;2.10;99.90
54576;DHT22;40472;53.486;14.542;2023-03-11T15:54:30;2.10;99.90
54576;DHT22;40472;53.486;14.542;2023-03-11T15:56:58;2.20;99.90
54576;DHT22;40472;53.486;14.542;2023-03-11T15:59:26;2.10;99.90
54576;DHT22;40472;53.486;14.542;2023-03-11T16:01:52;2.00;99.90
54576;DHT22;40472;53.486;14.542;2023-03-11T16:04:19;1.90;99.90
54576;DHT22;40472;53.486;14.542;2023-03-11T16:06:46;1.90;99.90
54576;DHT22;40472;53.486;14.542;2023-03-11T16:09:13;1.80;99.90
54576;DHT22;40472;53.486;14.542;2023-03-11T16:11:41;1.70;99.90
54576;DHT22;40472;53.486;14.542;2023-03-11T16:14:18;1.70;99.90
54576;DHT22;40472;53.486;14.542;2023-03-11T16:16:45;1.60;99.90
54576;DHT22;40472;53.486;14.542;2023-03-11T16:19:11;1.60;99.90
54576;DHT22;40472;53.486;14.542;2023-03-11T16:21:47;1.50;99.90
54576;DHT22;40472;53.486;14.542;2023-03-11T16:24:21;1.40;99.90
54576;DHT22;40472;53.486;14.542;2023-03-11T16:26:48;1.40;99.90
54576;DHT22;40472;53.486;14.542;2023-03-11T16:29:17;1.30;99.90
54576;DHT22;40472;53.486;14.542;2023-03-11T16:31:43;1.20;99.90
54576;DHT22;40472;53.486;14.542;2023-03-11T16:34:09;1.20;99.90
54576;DHT22;40472;53.486;14.542;2023-03-11T16:36:35;1.10;99.90
54576;DHT22;40472;53.486;14.542;2023-03-11T16:39:01;1.10;99.90
54576;DHT22;40472;53.486;14.542;2023-03-11T16:41:27;1.00;99.90
54576;DHT22;40472;53.486;14.542;2023-03-11T16:43:53;1.00;99.90
54576;DHT22;40472;53.486;14.542;2023-03-11T16:46:19;0.90;99.90
54576;DHT22;40472;53.486;14.542;2023-03-11T16:48:45;0.90;99.90
54576;DHT22;40472;53.486;14.542;2023-03-11T16:51:11;0.80;99.90
54576;DHT22;40472;53.486;14.542;2023-03-11T16:53:40;0.80;99.90
54576;DHT22;40472;53.486;14.542;2023-03-11T16:56:09;0.80;99.90
54576;DHT22;40472;53.486;14.542;2023-03-11T16:58:35;0.80;99.90
54576;DHT22;40472;53.486;14.542;2023-03-11T17:01:01;0.80;99.90
54576;DHT22;40472;53.486;14.542;2023-03-11T17:03:27;0.70;99.90
54576;DHT22;40472;53.486;14.542;2023-03-11T17:06:00;0.70;99.90
54576;DHT22;40472;53.486;14.542;2023-03-11T17:08:27;0.70;99.90
54576;DHT22;40472;53.486;14.542;2023-03-11T17:10:52;0.60;99.90
54576;DHT22;40472;53.486;14.542;2023-03-11T17:13:18;0.60;99.90
54576;DHT22;40472;53.486;14.542;2023-03-11T17:15:44;0.60;99.90
54576;DHT22;40472;53.486;14.542;2023-03-11T17:18:11;0.60;99.90
54576;DHT22;40472;53.486;14.542;2023-03-11T17:20:40;0.50;99.90
54576;DHT22;40472;53.486;14.542;2023-03-11T17:23:08;0.50;99.90
54576;DHT22;40472;53.486;14.542;2023-03-11T17:25:34;0.40;99.90
54576;DHT22;40472;53.486;14.542;2023-03-11T17:28:04;0.40;99.90
54576;DHT22;40472;53.486;14.542;2023-03-11T17:30:30;0.50;99.90
54576;DHT22;40472;53.486;14.542;2023-03-11T17:32:56;0.50;99.90
54576;DHT22;40472;53.486;14.542;2023-03-11T17:35:22;0.40;99.90